TFL6WV GCLP-EHGG
Flight info
| Callsign | TFL6WV |
|---|---|
| Flight time | 4h 7m |
| Altitude | 36000 |
| Route | VASTO UN858 AKUDA DCT ELVAR DCT BARDI DCT ZMR/N0448F380 DCT NUBLO DCT RONSI DCT DELOG DCT PEXOD DCT DIDIG DCT USODA DCT ERCUT DCT DITAL UN873 BAZOS DCT BELDI/N0447F370 DCT VICOT/N0447F380 N873 GRONY |
| Aircraft | B38M/M-SADE2E3FGHIRWXYZ/LB1 |
Departure
| Time | 2026-04-24 14:51 |
|---|---|
| Airport | Gran Canaria Airport (GCLP) |
Arrival
| Time | 2026-04-24 18:58 |
|---|---|
| Airport | Groningen Airport Eelde (EHGG) |
| Time | Latitude | Longitude | Altitude | Speed | Heading |
|---|---|---|---|---|---|
| 2026-04-24 14:32 | 27.93573 | -15.38936 | 87 ft | 0 kts | 291° |
| 2026-04-24 14:41 | 27.93566 | -15.38911 | 86 ft | 4 kts | 281° |
| 2026-04-24 14:41 | 27.93564 | -15.38881 | 86 ft | 4 kts | 264° |
| 2026-04-24 14:41 | 27.93571 | -15.38853 | 91 ft | 4 kts | 231° |
| 2026-04-24 14:41 | 27.93583 | -15.38843 | 87 ft | 1 kts | 202° |
| 2026-04-24 14:45 | 27.93575 | -15.38846 | 89 ft | 5 kts | 202° |
| 2026-04-24 14:45 | 27.93523 | -15.38864 | 86 ft | 9 kts | 192° |
| 2026-04-24 14:46 | 27.93454 | -15.38857 | 86 ft | 12 kts | 140° |
| 2026-04-24 14:46 | 27.93402 | -15.38771 | 82 ft | 12 kts | 163° |
| 2026-04-24 14:46 | 27.93319 | -15.38794 | 69 ft | 13 kts | 201° |
| 2026-04-24 14:46 | 27.93211 | -15.38842 | 70 ft | 21 kts | 202° |
| 2026-04-24 14:47 | 27.93109 | -15.38892 | 74 ft | 26 kts | 204° |
| 2026-04-24 14:47 | 27.92893 | -15.38990 | 83 ft | 22 kts | 202° |
| 2026-04-24 14:47 | 27.92772 | -15.39044 | 92 ft | 15 kts | 201° |
| 2026-04-24 14:47 | 27.92682 | -15.39084 | 92 ft | 14 kts | 201° |
| 2026-04-24 14:48 | 27.92568 | -15.39134 | 95 ft | 20 kts | 201° |
| 2026-04-24 14:48 | 27.92449 | -15.39186 | 98 ft | 17 kts | 201° |
| 2026-04-24 14:48 | 27.92334 | -15.39237 | 101 ft | 19 kts | 201° |
| 2026-04-24 14:48 | 27.92198 | -15.39297 | 103 ft | 24 kts | 201° |
| 2026-04-24 14:49 | 27.92037 | -15.39367 | 98 ft | 22 kts | 201° |
| 2026-04-24 14:49 | 27.91955 | -15.39394 | 95 ft | 0 kts | 177° |
| 2026-04-24 14:49 | 27.91949 | -15.39394 | 95 ft | 2 kts | 177° |
| 2026-04-24 14:50 | 27.91942 | -15.39393 | 95 ft | 3 kts | 174° |
| 2026-04-24 14:50 | 27.91905 | -15.39346 | 92 ft | 13 kts | 105° |
| 2026-04-24 14:50 | 27.91935 | -15.39228 | 92 ft | 17 kts | 52° |
| 2026-04-24 14:50 | 27.92094 | -15.39141 | 87 ft | 50 kts | 21° |
| 2026-04-24 14:51 | 27.92642 | -15.38899 | 71 ft | 117 kts | 21° |
| 2026-04-24 14:51 | 27.93572 | -15.38489 | 133 ft | 161 kts | 21° |
| 2026-04-24 14:51 | 27.94621 | -15.38030 | 802 ft | 162 kts | 24° |
| 2026-04-24 14:51 | 27.95654 | -15.37551 | 1554 ft | 169 kts | 22° |
| 2026-04-24 14:52 | 27.96845 | -15.37028 | 1930 ft | 198 kts | 21° |
| 2026-04-24 14:52 | 27.98212 | -15.36437 | 2452 ft | 220 kts | 20° |
| 2026-04-24 14:52 | 27.99708 | -15.35796 | 3045 ft | 239 kts | 20° |
| 2026-04-24 14:52 | 28.01311 | -15.35112 | 3808 ft | 249 kts | 20° |
| 2026-04-24 14:53 | 28.02936 | -15.34421 | 4774 ft | 252 kts | 20° |
| 2026-04-24 14:53 | 28.04593 | -15.33709 | 5649 ft | 257 kts | 21° |
| 2026-04-24 14:53 | 28.06271 | -15.32978 | 6546 ft | 261 kts | 21° |
| 2026-04-24 14:53 | 28.07981 | -15.32236 | 7402 ft | 266 kts | 21° |
| 2026-04-24 14:54 | 28.09722 | -15.31480 | 8264 ft | 270 kts | 20° |
| 2026-04-24 14:54 | 28.11499 | -15.30708 | 9016 ft | 279 kts | 20° |
| 2026-04-24 14:54 | 28.13324 | -15.29915 | 9807 ft | 282 kts | 20° |
| 2026-04-24 14:54 | 28.15212 | -15.29232 | 10503 ft | 291 kts | 13° |
| 2026-04-24 14:55 | 28.16569 | -15.28868 | 10760 ft | 304 kts | 13° |
| 2026-04-24 14:55 | 28.19403 | -15.28084 | 11219 ft | 328 kts | 12° |
| 2026-04-24 14:55 | 28.21665 | -15.27441 | 11680 ft | 341 kts | 12° |
| 2026-04-24 14:55 | 28.23995 | -15.26769 | 12248 ft | 349 kts | 12° |
| 2026-04-24 14:56 | 28.26358 | -15.26083 | 12988 ft | 352 kts | 12° |
| 2026-04-24 14:56 | 28.28745 | -15.25389 | 13655 ft | 356 kts | 12° |
| 2026-04-24 14:56 | 28.31154 | -15.24688 | 14343 ft | 360 kts | 12° |
| 2026-04-24 14:56 | 28.33497 | -15.23651 | 15014 ft | 366 kts | 29° |
| 2026-04-24 14:57 | 28.35648 | -15.22069 | 15679 ft | 371 kts | 30° |
| 2026-04-24 14:57 | 28.37834 | -15.20465 | 16212 ft | 378 kts | 30° |
| 2026-04-24 14:57 | 28.40064 | -15.18813 | 16675 ft | 387 kts | 30° |
| 2026-04-24 14:57 | 28.42320 | -15.17131 | 17310 ft | 389 kts | 30° |
| 2026-04-24 14:58 | 28.44593 | -15.15433 | 17870 ft | 393 kts | 31° |
| 2026-04-24 14:58 | 28.46888 | -15.13717 | 18447 ft | 396 kts | 31° |
| 2026-04-24 14:58 | 28.49201 | -15.11986 | 18993 ft | 400 kts | 31° |
| 2026-04-24 14:58 | 28.51530 | -15.10242 | 19538 ft | 403 kts | 31° |
| 2026-04-24 14:59 | 28.53881 | -15.08481 | 20076 ft | 406 kts | 31° |
| 2026-04-24 14:59 | 28.56249 | -15.06706 | 20612 ft | 409 kts | 31° |
| 2026-04-24 14:59 | 28.58635 | -15.04916 | 21117 ft | 412 kts | 31° |
| 2026-04-24 14:59 | 28.61041 | -15.03111 | 21576 ft | 417 kts | 31° |
| 2026-04-24 15:00 | 28.63477 | -15.01282 | 22011 ft | 421 kts | 31° |
| 2026-04-24 15:00 | 28.65926 | -14.99442 | 22505 ft | 423 kts | 31° |
| 2026-04-24 15:00 | 28.68395 | -14.97586 | 22969 ft | 427 kts | 31° |
| 2026-04-24 15:00 | 28.70878 | -14.95719 | 23420 ft | 429 kts | 31° |
| 2026-04-24 15:01 | 28.73378 | -14.93836 | 23857 ft | 432 kts | 31° |
| 2026-04-24 15:01 | 28.75889 | -14.91946 | 24297 ft | 434 kts | 31° |
| 2026-04-24 15:01 | 28.78420 | -14.90039 | 24720 ft | 437 kts | 31° |
| 2026-04-24 15:01 | 28.80963 | -14.88122 | 25130 ft | 440 kts | 31° |
| 2026-04-24 15:02 | 28.83525 | -14.86190 | 25530 ft | 442 kts | 31° |
| 2026-04-24 15:02 | 28.86094 | -14.84251 | 25935 ft | 444 kts | 31° |
| 2026-04-24 15:02 | 28.88680 | -14.82297 | 26309 ft | 447 kts | 31° |
| 2026-04-24 15:02 | 28.91276 | -14.80335 | 26695 ft | 449 kts | 31° |
| 2026-04-24 15:03 | 28.93005 | -14.79028 | 26927 ft | 451 kts | 31° |
| 2026-04-24 15:03 | 28.95625 | -14.77047 | 27279 ft | 453 kts | 31° |
| 2026-04-24 15:03 | 28.98261 | -14.75053 | 27609 ft | 456 kts | 30° |
| 2026-04-24 15:03 | 29.01816 | -14.72358 | 27989 ft | 460 kts | 30° |
| 2026-04-24 15:04 | 29.03586 | -14.71016 | 28228 ft | 462 kts | 30° |
| 2026-04-24 15:04 | 29.07140 | -14.68320 | 28655 ft | 464 kts | 30° |
| 2026-04-24 15:04 | 29.09836 | -14.66274 | 28976 ft | 466 kts | 30° |
| 2026-04-24 15:04 | 29.12547 | -14.64215 | 29285 ft | 469 kts | 30° |
| 2026-04-24 15:05 | 29.14384 | -14.62819 | 29495 ft | 470 kts | 30° |
| 2026-04-24 15:05 | 29.17113 | -14.60744 | 29796 ft | 472 kts | 30° |
| 2026-04-24 15:05 | 29.19852 | -14.58660 | 30084 ft | 474 kts | 30° |
| 2026-04-24 15:05 | 29.22602 | -14.56567 | 30378 ft | 476 kts | 30° |
| 2026-04-24 15:06 | 29.25326 | -14.54491 | 30644 ft | 478 kts | 30° |
| 2026-04-24 15:06 | 29.28096 | -14.52379 | 30919 ft | 480 kts | 30° |
| 2026-04-24 15:06 | 29.30881 | -14.50255 | 31189 ft | 482 kts | 30° |
| 2026-04-24 15:06 | 29.33673 | -14.48123 | 31467 ft | 483 kts | 30° |
| 2026-04-24 15:07 | 29.36470 | -14.45987 | 31816 ft | 482 kts | 30° |
| 2026-04-24 15:07 | 29.39257 | -14.43857 | 32183 ft | 481 kts | 30° |
| 2026-04-24 15:07 | 29.42042 | -14.41728 | 32565 ft | 480 kts | 29° |
| 2026-04-24 15:07 | 29.44807 | -14.39611 | 33003 ft | 477 kts | 29° |
| 2026-04-24 15:08 | 29.47565 | -14.37498 | 33369 ft | 476 kts | 29° |
| 2026-04-24 15:08 | 29.50314 | -14.35392 | 33706 ft | 475 kts | 29° |
| 2026-04-24 15:08 | 29.53058 | -14.33287 | 34013 ft | 474 kts | 29° |
| 2026-04-24 15:08 | 29.55801 | -14.31181 | 34338 ft | 474 kts | 29° |
| 2026-04-24 15:09 | 29.58536 | -14.29081 | 34665 ft | 472 kts | 29° |
| 2026-04-24 15:09 | 29.61268 | -14.26982 | 34946 ft | 472 kts | 29° |
| 2026-04-24 15:09 | 29.63994 | -14.24886 | 35204 ft | 472 kts | 29° |
| 2026-04-24 15:09 | 29.66719 | -14.22789 | 35458 ft | 472 kts | 29° |
| 2026-04-24 15:10 | 29.69447 | -14.20689 | 35708 ft | 471 kts | 29° |
| 2026-04-24 15:10 | 29.72167 | -14.18594 | 35955 ft | 471 kts | 29° |
| 2026-04-24 15:10 | 29.74893 | -14.16492 | 36090 ft | 472 kts | 29° |
| 2026-04-24 15:11 | 29.80332 | -14.12293 | 36084 ft | 469 kts | 29° |
| 2026-04-24 15:11 | 29.85752 | -14.08104 | 36082 ft | 469 kts | 29° |
| 2026-04-24 15:12 | 29.91172 | -14.03910 | 36084 ft | 469 kts | 29° |
| 2026-04-24 15:12 | 29.99301 | -13.97609 | 36082 ft | 469 kts | 29° |
| 2026-04-24 15:13 | 30.04718 | -13.93403 | 36083 ft | 469 kts | 29° |
| 2026-04-24 15:13 | 30.10134 | -13.89192 | 36083 ft | 469 kts | 29° |
| 2026-04-24 15:14 | 30.15552 | -13.84974 | 36082 ft | 469 kts | 29° |
| 2026-04-24 15:14 | 30.20964 | -13.80754 | 36082 ft | 469 kts | 29° |
| 2026-04-24 15:15 | 30.26377 | -13.76528 | 36078 ft | 470 kts | 30° |
| 2026-04-24 15:15 | 30.31796 | -13.72293 | 36082 ft | 470 kts | 30° |
| 2026-04-24 15:16 | 30.37183 | -13.68075 | 36081 ft | 470 kts | 30° |
| 2026-04-24 15:16 | 30.42595 | -13.63834 | 36082 ft | 470 kts | 30° |
| 2026-04-24 15:17 | 30.48007 | -13.59587 | 36080 ft | 470 kts | 30° |
| 2026-04-24 15:17 | 30.53406 | -13.55313 | 36080 ft | 470 kts | 30° |
| 2026-04-24 15:18 | 30.58792 | -13.51030 | 36069 ft | 469 kts | 30° |
| 2026-04-24 15:18 | 30.64176 | -13.46744 | 36061 ft | 469 kts | 30° |
| 2026-04-24 15:19 | 30.69558 | -13.42453 | 36060 ft | 469 kts | 30° |
| 2026-04-24 15:19 | 30.74934 | -13.38162 | 36068 ft | 469 kts | 30° |
| 2026-04-24 15:20 | 30.80303 | -13.33870 | 36060 ft | 468 kts | 30° |
| 2026-04-24 15:20 | 30.85674 | -13.29571 | 36061 ft | 469 kts | 30° |
| 2026-04-24 15:21 | 30.91041 | -13.25273 | 36061 ft | 468 kts | 30° |
| 2026-04-24 15:21 | 30.96415 | -13.21010 | 36059 ft | 468 kts | 30° |
| 2026-04-24 15:22 | 31.01795 | -13.16734 | 36069 ft | 468 kts | 30° |
| 2026-04-24 15:23 | 31.09850 | -13.10321 | 36066 ft | 467 kts | 29° |
| 2026-04-24 15:23 | 31.17901 | -13.03896 | 36061 ft | 467 kts | 29° |
| 2026-04-24 15:25 | 31.30393 | -12.93900 | 36067 ft | 467 kts | 29° |
| 2026-04-24 15:26 | 31.44677 | -12.82431 | 36059 ft | 466 kts | 29° |
| 2026-04-24 15:27 | 31.60706 | -12.69510 | 36062 ft | 466 kts | 29° |
| 2026-04-24 15:29 | 31.76699 | -12.56563 | 36072 ft | 465 kts | 29° |
| 2026-04-24 15:31 | 31.95322 | -12.41418 | 36065 ft | 465 kts | 29° |
| 2026-04-24 15:33 | 32.16553 | -12.24124 | 36064 ft | 463 kts | 28° |
| 2026-04-24 15:34 | 32.29794 | -12.13290 | 36068 ft | 463 kts | 28° |
| 2026-04-24 15:35 | 32.42990 | -12.02454 | 36061 ft | 463 kts | 28° |
| 2026-04-24 15:36 | 32.48280 | -11.98100 | 36066 ft | 463 kts | 28° |
| 2026-04-24 15:36 | 32.56188 | -11.91577 | 36066 ft | 461 kts | 28° |
| 2026-04-24 15:37 | 32.61448 | -11.87231 | 36061 ft | 460 kts | 28° |
| 2026-04-24 15:37 | 32.66696 | -11.82888 | 36066 ft | 460 kts | 28° |
| 2026-04-24 15:38 | 32.71938 | -11.78545 | 36065 ft | 459 kts | 28° |
| 2026-04-24 15:38 | 32.77163 | -11.74209 | 36063 ft | 458 kts | 28° |
| 2026-04-24 15:39 | 32.82376 | -11.69876 | 36062 ft | 457 kts | 28° |
| 2026-04-24 15:39 | 32.87578 | -11.65546 | 36055 ft | 456 kts | 27° |
| 2026-04-24 15:40 | 32.92766 | -11.61222 | 36049 ft | 455 kts | 27° |
| 2026-04-24 15:40 | 32.97914 | -11.56924 | 36053 ft | 454 kts | 27° |
| 2026-04-24 15:41 | 33.03083 | -11.52603 | 36058 ft | 454 kts | 27° |
| 2026-04-24 15:41 | 33.08240 | -11.48286 | 36057 ft | 453 kts | 27° |
| 2026-04-24 15:42 | 33.13389 | -11.43972 | 36060 ft | 452 kts | 27° |
| 2026-04-24 15:42 | 33.18526 | -11.39643 | 36052 ft | 452 kts | 27° |
| 2026-04-24 15:43 | 33.23644 | -11.35306 | 36041 ft | 451 kts | 27° |
| 2026-04-24 15:43 | 33.28762 | -11.30966 | 36047 ft | 451 kts | 27° |
| 2026-04-24 15:44 | 33.33866 | -11.26630 | 36045 ft | 450 kts | 27° |
| 2026-04-24 15:44 | 33.38934 | -11.22319 | 36049 ft | 450 kts | 27° |
| 2026-04-24 15:45 | 33.44034 | -11.17975 | 36045 ft | 450 kts | 27° |
| 2026-04-24 15:45 | 33.49122 | -11.13633 | 36052 ft | 449 kts | 27° |
| 2026-04-24 15:46 | 33.54208 | -11.09288 | 36033 ft | 449 kts | 27° |
| 2026-04-24 15:46 | 33.59299 | -11.04932 | 36046 ft | 449 kts | 27° |
| 2026-04-24 15:47 | 33.64370 | -11.00587 | 36034 ft | 448 kts | 27° |
| 2026-04-24 15:47 | 33.69441 | -10.96235 | 36035 ft | 448 kts | 27° |
| 2026-04-24 15:48 | 33.74506 | -10.91882 | 36033 ft | 447 kts | 27° |
| 2026-04-24 15:48 | 33.79529 | -10.87559 | 36027 ft | 447 kts | 27° |
| 2026-04-24 15:49 | 33.84584 | -10.83201 | 36027 ft | 447 kts | 27° |
| 2026-04-24 15:49 | 33.89633 | -10.78841 | 36026 ft | 446 kts | 27° |
| 2026-04-24 15:50 | 33.94670 | -10.74487 | 36027 ft | 446 kts | 27° |
| 2026-04-24 15:50 | 33.99712 | -10.70121 | 36028 ft | 446 kts | 27° |
| 2026-04-24 15:51 | 34.04733 | -10.65767 | 36030 ft | 443 kts | 27° |
| 2026-04-24 15:51 | 34.09685 | -10.61467 | 36026 ft | 441 kts | 27° |
| 2026-04-24 15:52 | 34.14671 | -10.57131 | 36044 ft | 442 kts | 27° |
| 2026-04-24 15:52 | 34.19656 | -10.52789 | 36047 ft | 442 kts | 27° |
| 2026-04-24 15:53 | 34.24639 | -10.48441 | 36043 ft | 442 kts | 27° |
| 2026-04-24 15:53 | 34.29624 | -10.44087 | 36046 ft | 442 kts | 27° |
| 2026-04-24 15:54 | 34.34571 | -10.39758 | 36058 ft | 442 kts | 27° |
| 2026-04-24 15:54 | 34.39554 | -10.35392 | 36074 ft | 442 kts | 27° |
| 2026-04-24 15:55 | 34.44520 | -10.31034 | 36073 ft | 440 kts | 27° |
| 2026-04-24 15:55 | 34.48645 | -10.27409 | 36074 ft | 441 kts | 27° |
| 2026-04-24 15:56 | 34.53611 | -10.23041 | 36073 ft | 441 kts | 27° |
| 2026-04-24 15:56 | 34.58578 | -10.18665 | 36072 ft | 441 kts | 27° |
| 2026-04-24 15:57 | 34.63546 | -10.14293 | 36074 ft | 441 kts | 27° |
| 2026-04-24 15:57 | 34.68516 | -10.09927 | 36081 ft | 441 kts | 27° |
| 2026-04-24 15:58 | 34.73453 | -10.05584 | 36081 ft | 440 kts | 27° |
| 2026-04-24 15:58 | 34.78411 | -10.01215 | 36072 ft | 440 kts | 28° |
| 2026-04-24 15:59 | 34.83407 | -9.96806 | 36069 ft | 441 kts | 28° |
| 2026-04-24 15:59 | 34.88366 | -9.92424 | 36074 ft | 445 kts | 29° |
| 2026-04-24 16:00 | 34.93374 | -9.87991 | 36073 ft | 445 kts | 29° |
| 2026-04-24 16:00 | 34.98377 | -9.83557 | 36073 ft | 444 kts | 29° |
| 2026-04-24 16:01 | 35.03380 | -9.79115 | 36082 ft | 445 kts | 29° |
| 2026-04-24 16:01 | 35.08379 | -9.74670 | 36083 ft | 444 kts | 30° |
| 2026-04-24 16:02 | 35.13371 | -9.70223 | 36073 ft | 444 kts | 30° |
| 2026-04-24 16:02 | 35.18369 | -9.65765 | 36073 ft | 445 kts | 30° |
| 2026-04-24 16:03 | 35.23358 | -9.61308 | 36077 ft | 445 kts | 30° |
| 2026-04-24 16:03 | 35.28351 | -9.56840 | 36080 ft | 444 kts | 30° |
| 2026-04-24 16:04 | 35.33340 | -9.52369 | 36083 ft | 445 kts | 30° |
| 2026-04-24 16:04 | 35.38334 | -9.47887 | 36082 ft | 444 kts | 30° |
| 2026-04-24 16:05 | 35.45812 | -9.41161 | 36082 ft | 444 kts | 31° |
| 2026-04-24 16:06 | 35.53287 | -9.34423 | 36082 ft | 445 kts | 31° |
| 2026-04-24 16:07 | 35.60778 | -9.27654 | 36090 ft | 446 kts | 31° |
| 2026-04-24 16:07 | 35.68284 | -9.20856 | 36091 ft | 447 kts | 31° |
| 2026-04-24 16:08 | 35.75797 | -9.14034 | 36090 ft | 448 kts | 32° |
| 2026-04-24 16:09 | 35.83331 | -9.07177 | 36090 ft | 450 kts | 32° |
| 2026-04-24 16:09 | 35.88335 | -9.02615 | 36090 ft | 451 kts | 32° |
| 2026-04-24 16:11 | 36.01569 | -8.92571 | 36073 ft | 448 kts | 20° |
| 2026-04-24 16:11 | 36.07332 | -8.89595 | 36092 ft | 451 kts | 21° |
| 2026-04-24 16:12 | 36.16060 | -8.85151 | 36090 ft | 453 kts | 21° |
| 2026-04-24 16:13 | 36.24814 | -8.80689 | 36101 ft | 454 kts | 21° |
| 2026-04-24 16:14 | 36.36527 | -8.74700 | 36101 ft | 456 kts | 21° |
| 2026-04-24 16:14 | 36.45339 | -8.70182 | 36097 ft | 457 kts | 22° |
| 2026-04-24 16:15 | 36.54165 | -8.65646 | 36074 ft | 458 kts | 22° |
| 2026-04-24 16:16 | 36.63047 | -8.61069 | 36073 ft | 459 kts | 22° |
| 2026-04-24 16:17 | 36.77828 | -8.53428 | 36072 ft | 460 kts | 22° |
| 2026-04-24 16:18 | 36.89683 | -8.47276 | 36072 ft | 462 kts | 23° |
| 2026-04-24 16:19 | 36.98604 | -8.42632 | 36073 ft | 464 kts | 23° |
| 2026-04-24 16:20 | 37.07555 | -8.37961 | 36072 ft | 465 kts | 23° |
| 2026-04-24 16:20 | 37.16491 | -8.33286 | 36073 ft | 467 kts | 24° |
| 2026-04-24 16:21 | 37.25512 | -8.28555 | 36072 ft | 470 kts | 24° |
| 2026-04-24 16:22 | 37.31547 | -8.25383 | 36073 ft | 471 kts | 24° |
| 2026-04-24 16:22 | 37.40644 | -8.20590 | 36073 ft | 474 kts | 25° |
| 2026-04-24 16:23 | 37.46736 | -8.17374 | 36073 ft | 476 kts | 25° |
| 2026-04-24 16:24 | 37.55920 | -8.12515 | 36075 ft | 479 kts | 26° |
| 2026-04-24 16:24 | 37.62051 | -8.09263 | 36071 ft | 480 kts | 26° |
| 2026-04-24 16:25 | 37.68217 | -8.05988 | 36074 ft | 481 kts | 26° |
| 2026-04-24 16:25 | 37.74392 | -8.02701 | 36071 ft | 482 kts | 26° |
| 2026-04-24 16:26 | 37.83670 | -7.97752 | 36070 ft | 483 kts | 26° |
| 2026-04-24 16:27 | 37.92974 | -7.92775 | 36074 ft | 484 kts | 27° |
| 2026-04-24 16:27 | 37.99181 | -7.89448 | 36073 ft | 484 kts | 27° |
| 2026-04-24 16:28 | 38.05382 | -7.86117 | 36070 ft | 484 kts | 27° |
| 2026-04-24 16:28 | 38.14687 | -7.81107 | 36072 ft | 484 kts | 27° |
| 2026-04-24 16:29 | 38.20883 | -7.77764 | 36074 ft | 484 kts | 27° |
| 2026-04-24 16:30 | 38.33290 | -7.71051 | 36074 ft | 484 kts | 27° |
| 2026-04-24 16:30 | 38.39484 | -7.67689 | 36071 ft | 484 kts | 27° |
| 2026-04-24 16:31 | 38.45684 | -7.64319 | 36074 ft | 484 kts | 26° |
| 2026-04-24 16:31 | 38.51890 | -7.60939 | 36068 ft | 485 kts | 26° |
| 2026-04-24 16:32 | 38.58091 | -7.57555 | 36064 ft | 485 kts | 26° |
| 2026-04-24 16:32 | 38.64290 | -7.54165 | 36068 ft | 485 kts | 26° |
| 2026-04-24 16:33 | 38.70491 | -7.50769 | 36065 ft | 485 kts | 26° |
| 2026-04-24 16:33 | 38.76702 | -7.47360 | 36065 ft | 485 kts | 26° |
| 2026-04-24 16:34 | 38.82910 | -7.43947 | 36067 ft | 486 kts | 26° |
| 2026-04-24 16:34 | 38.89126 | -7.40522 | 36052 ft | 486 kts | 26° |
| 2026-04-24 16:35 | 38.95344 | -7.37091 | 36063 ft | 487 kts | 26° |
| 2026-04-24 16:35 | 39.01567 | -7.33651 | 36058 ft | 487 kts | 26° |
| 2026-04-24 16:36 | 39.07794 | -7.30202 | 36051 ft | 487 kts | 26° |
| 2026-04-24 16:36 | 39.14028 | -7.26743 | 36054 ft | 488 kts | 26° |
| 2026-04-24 16:37 | 39.20271 | -7.23272 | 36057 ft | 489 kts | 26° |
| 2026-04-24 16:37 | 39.26313 | -7.19312 | 36079 ft | 488 kts | 30° |
| 2026-04-24 16:38 | 39.31325 | -7.15975 | 36060 ft | 487 kts | 30° |
| 2026-04-24 16:38 | 39.37369 | -7.11973 | 36060 ft | 488 kts | 30° |
| 2026-04-24 16:39 | 39.44386 | -7.07322 | 36067 ft | 489 kts | 30° |
| 2026-04-24 16:39 | 39.47418 | -7.05308 | 36187 ft | 489 kts | 30° |
| 2026-04-24 16:39 | 39.50443 | -7.03298 | 36452 ft | 489 kts | 30° |
| 2026-04-24 16:40 | 39.52489 | -7.01937 | 36589 ft | 489 kts | 30° |
| 2026-04-24 16:40 | 39.55513 | -6.99925 | 36883 ft | 487 kts | 29° |
| 2026-04-24 16:40 | 39.58510 | -6.97930 | 37292 ft | 481 kts | 28° |
| 2026-04-24 16:40 | 39.61452 | -6.95964 | 37809 ft | 471 kts | 28° |
| 2026-04-24 16:41 | 39.64327 | -6.94047 | 38167 ft | 463 kts | 28° |
| 2026-04-24 16:41 | 39.67189 | -6.92132 | 38072 ft | 460 kts | 28° |
| 2026-04-24 16:41 | 39.72814 | -6.88369 | 38082 ft | 454 kts | 28° |
| 2026-04-24 16:42 | 39.78426 | -6.84604 | 38073 ft | 454 kts | 28° |
| 2026-04-24 16:42 | 39.84036 | -6.80836 | 38073 ft | 454 kts | 28° |
| 2026-04-24 16:43 | 39.89653 | -6.77055 | 38074 ft | 455 kts | 28° |
| 2026-04-24 16:43 | 39.95239 | -6.73290 | 38071 ft | 455 kts | 28° |
| 2026-04-24 16:44 | 40.00854 | -6.69497 | 38087 ft | 455 kts | 28° |
| 2026-04-24 16:44 | 40.06488 | -6.65683 | 38082 ft | 457 kts | 29° |
| 2026-04-24 16:45 | 40.12140 | -6.61852 | 38078 ft | 458 kts | 29° |
| 2026-04-24 16:45 | 40.17832 | -6.57985 | 38085 ft | 458 kts | 29° |
| 2026-04-24 16:46 | 40.23488 | -6.54135 | 38092 ft | 458 kts | 29° |
| 2026-04-24 16:46 | 40.29144 | -6.50279 | 38087 ft | 458 kts | 29° |
| 2026-04-24 16:47 | 40.34793 | -6.46420 | 38091 ft | 458 kts | 29° |
| 2026-04-24 16:47 | 40.40410 | -6.42575 | 38083 ft | 458 kts | 29° |
| 2026-04-24 16:48 | 40.46102 | -6.38672 | 38093 ft | 459 kts | 29° |
| 2026-04-24 16:48 | 40.51727 | -6.34808 | 38092 ft | 459 kts | 29° |
| 2026-04-24 16:49 | 40.57380 | -6.30918 | 38089 ft | 459 kts | 29° |
| 2026-04-24 16:49 | 40.63083 | -6.26985 | 38101 ft | 459 kts | 29° |
| 2026-04-24 16:50 | 40.68749 | -6.23073 | 38104 ft | 460 kts | 29° |
| 2026-04-24 16:50 | 40.74383 | -6.19174 | 38105 ft | 460 kts | 29° |
| 2026-04-24 16:51 | 40.80054 | -6.15243 | 38102 ft | 461 kts | 30° |
| 2026-04-24 16:51 | 40.85740 | -6.11294 | 38104 ft | 462 kts | 30° |
| 2026-04-24 16:52 | 40.91426 | -6.07337 | 38101 ft | 463 kts | 30° |
| 2026-04-24 16:52 | 40.97124 | -6.03364 | 38099 ft | 463 kts | 30° |
| 2026-04-24 16:53 | 41.02829 | -5.99378 | 38103 ft | 464 kts | 30° |
| 2026-04-24 16:53 | 41.08546 | -5.95376 | 38099 ft | 466 kts | 30° |
| 2026-04-24 16:54 | 41.14283 | -5.91352 | 38102 ft | 466 kts | 30° |
| 2026-04-24 16:54 | 41.20025 | -5.87317 | 38103 ft | 467 kts | 30° |
| 2026-04-24 16:55 | 41.25773 | -5.83268 | 38099 ft | 468 kts | 30° |
| 2026-04-24 16:55 | 41.31568 | -5.79179 | 38104 ft | 469 kts | 30° |
| 2026-04-24 16:56 | 41.37290 | -5.75133 | 38097 ft | 469 kts | 30° |
| 2026-04-24 16:56 | 41.43057 | -5.71048 | 38096 ft | 469 kts | 30° |
| 2026-04-24 16:57 | 41.48864 | -5.66926 | 38104 ft | 470 kts | 30° |
| 2026-04-24 16:57 | 41.54689 | -5.63069 | 38105 ft | 471 kts | 25° |
| 2026-04-24 16:58 | 41.60733 | -5.59632 | 38099 ft | 472 kts | 25° |
| 2026-04-24 16:58 | 41.66785 | -5.56217 | 38102 ft | 472 kts | 25° |
| 2026-04-24 16:59 | 41.72842 | -5.52794 | 38098 ft | 473 kts | 25° |
| 2026-04-24 17:00 | 41.81935 | -5.47642 | 38103 ft | 473 kts | 25° |
| 2026-04-24 17:00 | 41.91027 | -5.42476 | 38101 ft | 473 kts | 25° |
| 2026-04-24 17:01 | 42.00061 | -5.37326 | 38099 ft | 472 kts | 25° |
| 2026-04-24 17:02 | 42.09138 | -5.32135 | 38100 ft | 473 kts | 24° |
| 2026-04-24 17:02 | 42.15192 | -5.28664 | 38101 ft | 473 kts | 25° |
| 2026-04-24 17:03 | 42.24264 | -5.23450 | 38100 ft | 472 kts | 24° |
| 2026-04-24 17:04 | 42.30305 | -5.19968 | 38101 ft | 472 kts | 24° |
| 2026-04-24 17:04 | 42.39361 | -5.14735 | 38099 ft | 471 kts | 24° |
| 2026-04-24 17:05 | 42.45383 | -5.11246 | 38101 ft | 471 kts | 24° |
| 2026-04-24 17:06 | 42.54419 | -5.05998 | 38103 ft | 471 kts | 24° |
| 2026-04-24 17:06 | 42.63436 | -5.00745 | 38106 ft | 470 kts | 24° |
| 2026-04-24 17:07 | 42.69451 | -4.97229 | 38111 ft | 470 kts | 24° |
| 2026-04-24 17:08 | 42.81452 | -4.90192 | 38112 ft | 469 kts | 24° |
| 2026-04-24 17:08 | 42.87449 | -4.86666 | 38118 ft | 469 kts | 24° |
| 2026-04-24 17:09 | 42.99423 | -4.79601 | 38117 ft | 469 kts | 24° |
| 2026-04-24 17:10 | 43.11335 | -4.72543 | 38114 ft | 468 kts | 24° |
| 2026-04-24 17:12 | 43.35192 | -4.58318 | 38133 ft | 467 kts | 24° |
| 2026-04-24 18:54 | 53.01757 | 6.36361 | 2789 ft | 195 kts | 46° |
| 2026-04-24 18:55 | 53.03274 | 6.39560 | 2347 ft | 161 kts | 46° |
| 2026-04-24 18:55 | 53.03962 | 6.41020 | 2173 ft | 160 kts | 46° |
| 2026-04-24 18:55 | 53.04627 | 6.42427 | 2037 ft | 150 kts | 46° |
| 2026-04-24 18:56 | 53.05261 | 6.43795 | 1978 ft | 150 kts | 46° |
| 2026-04-24 18:56 | 53.05892 | 6.45161 | 1758 ft | 149 kts | 47° |
| 2026-04-24 18:56 | 53.06519 | 6.46518 | 1506 ft | 147 kts | 47° |
| 2026-04-24 18:56 | 53.07141 | 6.47837 | 1292 ft | 147 kts | 46° |
| 2026-04-24 18:57 | 53.07788 | 6.49173 | 1076 ft | 149 kts | 48° |
| 2026-04-24 18:57 | 53.08438 | 6.50518 | 870 ft | 149 kts | 47° |
| 2026-04-24 18:57 | 53.09094 | 6.51853 | 675 ft | 149 kts | 48° |
| 2026-04-24 18:57 | 53.09739 | 6.53200 | 489 ft | 148 kts | 49° |
| 2026-04-24 18:58 | 53.10378 | 6.54549 | 302 ft | 149 kts | 49° |
| 2026-04-24 18:58 | 53.11016 | 6.55908 | 96 ft | 150 kts | 50° |
| 2026-04-24 18:58 | 53.11624 | 6.57180 | 37 ft | 118 kts | 51° |
| 2026-04-24 18:58 | 53.11979 | 6.57931 | 39 ft | 46 kts | 52° |
| 2026-04-24 18:59 | 53.12164 | 6.58324 | 36 ft | 47 kts | 51° |
| 2026-04-24 18:59 | 53.12355 | 6.58731 | 29 ft | 35 kts | 52° |
| 2026-04-24 18:59 | 53.12468 | 6.58963 | 31 ft | 20 kts | 34° |
| 2026-04-24 18:59 | 53.12583 | 6.58944 | 31 ft | 15 kts | 324° |
| 2026-04-24 19:00 | 53.12657 | 6.58792 | 27 ft | 15 kts | 308° |
| 2026-04-24 19:00 | 53.12720 | 6.58665 | 28 ft | 14 kts | 308° |
| 2026-04-24 19:00 | 53.12735 | 6.58564 | 28 ft | 7 kts | 287° |
| 2026-04-24 19:00 | 53.12764 | 6.58511 | 27 ft | 5 kts | 327° |
| 2026-04-24 19:01 | 53.12782 | 6.58508 | 26 ft | 0 kts | 5° |